createdAt,value
2023-01-17T00:02:15.096Z,93558.45
2023-01-17T00:05:01.811Z,93552.92
2023-01-17T00:07:49.103Z,93568.39
2023-01-17T00:10:18.781Z,93578.89
2023-01-17T00:13:04.931Z,93579.90
2023-01-17T00:15:33.116Z,93569.83
2023-01-17T00:18:01.349Z,93565.34
2023-01-17T00:20:50.281Z,93557.67
2023-01-17T00:23:40.535Z,93554.61
2023-01-17T00:26:18.360Z,93554.45
2023-01-17T00:28:47.277Z,93547.35
2023-01-17T00:31:16.864Z,93543.48
2023-01-17T00:33:45.461Z,93542.17
2023-01-17T00:36:13.775Z,93540.29
2023-01-17T00:38:42.156Z,93541.78
2023-01-17T00:41:14.859Z,93529.14
2023-01-17T00:44:01.783Z,93529.20
2023-01-17T00:46:48.444Z,93534.70
2023-01-17T00:49:35.239Z,93547.77
2023-01-17T00:52:22.115Z,93555.36
2023-01-17T00:55:08.697Z,93555.77
2023-01-17T00:57:55.522Z,93542.24
2023-01-17T01:00:42.628Z,93526.45
2023-01-17T01:03:30.948Z,93528.84
2023-01-17T01:06:17.893Z,93539.63
2023-01-17T01:09:04.872Z,93555.53
2023-01-17T01:11:51.947Z,93559.05
2023-01-17T01:14:39.008Z,93560.48
2023-01-17T01:17:25.927Z,93561.63
2023-01-17T01:20:12.601Z,93567.95
2023-01-17T01:22:59.418Z,93557.80
2023-01-17T01:25:46.606Z,93550.06
2023-01-17T01:28:34.158Z,93541.63
2023-01-17T01:31:22.687Z,93538.98
2023-01-17T01:33:52.431Z,93533.55
2023-01-17T01:36:21.142Z,93527.50
2023-01-17T01:38:50.522Z,93524.22
2023-01-17T01:41:18.804Z,93522.66
2023-01-17T01:43:54.958Z,93520.39
2023-01-17T01:46:40.148Z,93526.73
2023-01-17T01:49:21.723Z,93532.73
2023-01-17T01:51:54.441Z,93532.30
2023-01-17T01:54:30.709Z,93529.84
2023-01-17T01:57:03.628Z,93530.36
2023-01-17T01:59:33.750Z,93529.96
2023-01-17T02:02:02.238Z,93524.42
2023-01-17T02:04:30.575Z,93516.96
2023-01-17T02:07:11.265Z,93510.30
2023-01-17T02:09:39.318Z,93500.33
2023-01-17T02:12:09.114Z,93496.47
2023-01-17T02:14:37.277Z,93489.73
2023-01-17T02:17:08.164Z,93478.19
2023-01-17T02:19:58.256Z,93477.84
2023-01-17T02:22:51.703Z,93473.17
2023-01-17T02:25:57.460Z,93472.84
2023-01-17T02:28:37.668Z,93473.30
2023-01-17T02:31:12.284Z,93477.52
2023-01-17T02:34:06.407Z,93481.20
2023-01-17T02:36:44.779Z,93488.47
2023-01-17T02:39:24.340Z,93488.93
2023-01-17T02:41:58.127Z,93486.87
2023-01-17T02:44:26.279Z,93487.17
2023-01-17T02:46:56.836Z,93482.59
2023-01-17T02:49:31.092Z,93480.88
2023-01-17T02:52:10.957Z,93476.81
2023-01-17T02:55:06.945Z,93474.52
2023-01-17T02:57:44.489Z,93468.27
2023-01-17T03:00:48.140Z,93471.27
2023-01-17T03:03:27.791Z,93468.67
2023-01-17T03:06:12.089Z,93461.66
2023-01-17T03:08:43.036Z,93453.67
2023-01-17T03:11:12.336Z,93451.86
2023-01-17T03:13:41.293Z,93445.77
2023-01-17T03:16:18.831Z,93436.65
2023-01-17T03:18:47.471Z,93431.79
2023-01-17T03:21:15.878Z,93422.10
2023-01-17T03:23:44.373Z,93420.62
2023-01-17T03:26:12.825Z,93422.80
2023-01-17T03:28:41.166Z,93425.27
2023-01-17T03:31:09.913Z,93423.42
2023-01-17T03:33:38.016Z,93417.08
2023-01-17T03:36:06.316Z,93413.52
2023-01-17T03:38:34.446Z,93414.45
2023-01-17T03:41:02.568Z,93415.90
2023-01-17T03:43:30.816Z,93414.60
2023-01-17T03:46:04.359Z,93418.56
2023-01-17T03:48:33.120Z,93428.86
2023-01-17T03:51:01.342Z,93433.48
2023-01-17T03:53:29.425Z,93433.40
2023-01-17T03:55:57.664Z,93425.56
2023-01-17T03:58:25.847Z,93420.84
2023-01-17T04:00:54.155Z,93416.14
2023-01-17T04:03:22.533Z,93416.68
2023-01-17T04:05:50.604Z,93408.67
2023-01-17T04:08:19.047Z,93399.62
2023-01-17T04:10:47.477Z,93397.44
2023-01-17T04:13:16.852Z,93395.90
2023-01-17T04:15:48.593Z,93397.53
2023-01-17T04:18:18.268Z,93402.12
2023-01-17T04:20:46.924Z,93409.98
2023-01-17T04:23:15.054Z,93408.10
2023-01-17T04:25:43.486Z,93409.08
2023-01-17T04:28:12.282Z,93407.74
2023-01-17T04:30:40.619Z,93400.58
2023-01-17T04:33:08.841Z,93404.20
2023-01-17T04:35:36.991Z,93403.20
2023-01-17T04:38:05.124Z,93399.17
2023-01-17T04:40:35.348Z,93396.93
2023-01-17T04:43:03.422Z,93394.98
2023-01-17T04:45:31.582Z,93399.42
2023-01-17T04:48:06.477Z,93399.58
2023-01-17T04:50:34.614Z,93397.66
2023-01-17T04:53:02.812Z,93395.63
2023-01-17T04:55:31.241Z,93393.12
2023-01-17T04:57:59.415Z,93396.73
2023-01-17T05:00:27.549Z,93391.72
2023-01-17T05:02:55.853Z,93389.91
2023-01-17T05:05:24.053Z,93386.65
2023-01-17T05:07:56.691Z,93375.96
2023-01-17T05:10:25.675Z,93374.64
2023-01-17T05:12:58.311Z,93374.67
2023-01-17T05:15:27.271Z,93381.98
2023-01-17T05:17:56.084Z,93388.80
2023-01-17T05:20:26.231Z,93393.40
2023-01-17T05:22:58.463Z,93397.04
2023-01-17T05:25:29.503Z,93399.52
2023-01-17T05:28:00.226Z,93403.18
2023-01-17T05:30:31.165Z,93398.89
2023-01-17T05:32:59.911Z,93393.12
2023-01-17T05:35:32.715Z,93384.48
2023-01-17T05:38:01.530Z,93377.90
2023-01-17T05:40:32.197Z,93364.84
2023-01-17T05:43:01.766Z,93362.78
2023-01-17T05:45:31.964Z,93358.10
2023-01-17T05:48:01.054Z,93365.05
2023-01-17T05:50:33.866Z,93377.27
2023-01-17T05:53:07.278Z,93383.02
2023-01-17T05:55:36.505Z,93379.90
2023-01-17T05:58:05.410Z,93386.71
2023-01-17T06:00:35.073Z,93387.14
2023-01-17T06:03:05.025Z,93382.85
2023-01-17T06:05:34.961Z,93388.02
2023-01-17T06:08:03.978Z,93387.45
2023-01-17T06:10:33.380Z,93384.19
2023-01-17T06:13:16.760Z,93379.68
2023-01-17T06:15:45.092Z,93380.48
2023-01-17T06:18:17.119Z,93386.46
2023-01-17T06:20:45.681Z,93391.80
2023-01-17T06:23:14.986Z,93411.18
2023-01-17T06:25:46.136Z,93412.52
2023-01-17T06:28:18.009Z,93412.42
2023-01-17T06:30:47.050Z,93425.26
2023-01-17T06:33:16.284Z,93423.77
2023-01-17T06:35:51.076Z,93428.18
2023-01-17T06:38:20.520Z,93431.48
2023-01-17T06:40:49.189Z,93434.48
2023-01-17T06:43:17.535Z,93437.29
2023-01-17T06:45:45.864Z,93438.78
2023-01-17T06:48:14.343Z,93449.33
2023-01-17T06:50:42.641Z,93450.98
2023-01-17T06:53:11.326Z,93432.75
2023-01-17T06:55:41.529Z,93423.15
2023-01-17T06:58:10.463Z,93423.33
2023-01-17T07:00:41.089Z,93439.80
2023-01-17T07:03:20.146Z,93444.41
2023-01-17T07:05:49.281Z,93446.59
2023-01-17T07:08:18.946Z,93441.81
2023-01-17T07:10:48.592Z,93438.77
2023-01-17T07:13:16.922Z,93431.20
2023-01-17T07:15:45.015Z,93427.33
2023-01-17T07:18:13.368Z,93421.95
2023-01-17T07:20:44.295Z,93417.92
2023-01-17T07:23:18.917Z,93420.08
2023-01-17T07:25:55.513Z,93429.23
2023-01-17T07:28:25.338Z,93439.86
2023-01-17T07:30:54.727Z,93439.77
2023-01-17T07:33:23.149Z,93434.25
2023-01-17T07:35:51.832Z,93427.84
2023-01-17T07:38:20.493Z,93434.50
2023-01-17T07:40:48.842Z,93438.06
2023-01-17T07:43:19.106Z,93445.69
2023-01-17T07:45:50.982Z,93446.36
2023-01-17T07:48:21.567Z,93447.17
2023-01-17T07:50:57.156Z,93457.61
2023-01-17T07:53:27.098Z,93466.48
2023-01-17T07:55:56.286Z,93466.95
2023-01-17T07:58:25.296Z,93470.05
2023-01-17T08:00:53.707Z,93463.29
2023-01-17T08:03:21.947Z,93441.95
2023-01-17T08:05:56.317Z,93434.41
2023-01-17T08:08:24.901Z,93434.09
2023-01-17T08:10:53.684Z,93444.73
2023-01-17T08:13:25.290Z,93453.58
2023-01-17T08:15:54.953Z,93453.23
2023-01-17T08:18:24.637Z,93452.70
2023-01-17T08:20:54.495Z,93459.73
2023-01-17T08:23:23.394Z,93458.08
2023-01-17T08:25:51.632Z,93458.79
2023-01-17T08:28:21.169Z,93464.77
2023-01-17T08:30:49.279Z,93466.50
2023-01-17T08:33:17.350Z,93462.88
2023-01-17T08:35:54.903Z,93459.10
2023-01-17T08:38:23.978Z,93472.64
2023-01-17T08:40:52.296Z,93483.87
2023-01-17T08:43:20.624Z,93482.38
2023-01-17T08:45:50.376Z,93488.36
2023-01-17T08:48:18.498Z,93495.50
2023-01-17T08:50:47.131Z,93495.34
2023-01-17T08:53:15.927Z,93493.27
2023-01-17T08:55:45.074Z,93490.77
2023-01-17T08:58:13.935Z,93489.13
2023-01-17T09:00:42.346Z,93487.77
2023-01-17T09:03:14.569Z,93498.71
2023-01-17T09:05:43.041Z,93494.55
2023-01-17T09:08:11.586Z,93486.20
2023-01-17T09:10:39.874Z,93493.85
2023-01-17T09:13:08.786Z,93509.02
2023-01-17T09:15:37.675Z,93523.98
2023-01-17T09:18:05.888Z,93520.30
2023-01-17T09:20:34.050Z,93518.91
2023-01-17T09:23:04.040Z,93515.81
2023-01-17T09:25:32.317Z,93516.36
2023-01-17T09:28:00.509Z,93518.88
2023-01-17T09:30:28.849Z,93522.25
2023-01-17T09:32:59.989Z,93518.52
2023-01-17T09:35:28.489Z,93525.37
2023-01-17T09:37:57.392Z,93526.55
2023-01-17T09:40:30.068Z,93528.02
2023-01-17T09:43:04.222Z,93537.65
2023-01-17T09:45:34.317Z,93534.13
2023-01-17T09:48:09.118Z,93537.02
2023-01-17T09:51:08.793Z,93530.59
2023-01-17T09:53:44.003Z,93533.15
2023-01-17T09:56:17.704Z,93521.79
2023-01-17T09:59:05.920Z,93514.36
2023-01-17T10:01:42.966Z,93508.18
2023-01-17T10:04:21.620Z,93494.06
2023-01-17T10:06:59.588Z,93490.49
2023-01-17T10:09:48.987Z,93476.57
2023-01-17T10:12:25.497Z,93475.77
2023-01-17T10:15:05.223Z,93469.33
2023-01-17T10:17:56.000Z,93461.48
2023-01-17T10:20:35.434Z,93463.48
2023-01-17T10:23:33.437Z,93463.73
2023-01-17T10:26:06.928Z,93469.27
2023-01-17T10:28:42.466Z,93465.63
2023-01-17T10:31:24.753Z,93463.48
2023-01-17T10:33:56.087Z,93464.68
2023-01-17T10:36:28.073Z,93466.92
2023-01-17T10:39:01.144Z,93458.52
2023-01-17T10:41:34.914Z,93454.50
2023-01-17T10:44:21.712Z,93463.84
2023-01-17T10:47:07.767Z,93459.84
2023-01-17T10:49:40.379Z,93466.16
2023-01-17T10:52:33.197Z,93469.66
2023-01-17T10:55:39.273Z,93468.31
2023-01-17T10:58:12.876Z,93464.38
2023-01-17T11:00:57.418Z,93470.02
2023-01-17T11:03:27.889Z,93462.35
2023-01-17T11:06:27.459Z,93470.86
2023-01-17T11:09:00.577Z,93460.93
2023-01-17T11:11:51.693Z,93467.87
2023-01-17T11:14:27.095Z,93471.70
2023-01-17T11:17:01.227Z,93480.67
2023-01-17T11:19:39.601Z,93480.06
2023-01-17T11:22:14.026Z,93488.30
2023-01-17T11:24:49.639Z,93487.64
2023-01-17T11:27:26.517Z,93475.79
2023-01-17T11:30:04.092Z,93478.45
2023-01-17T11:32:34.528Z,93488.27
2023-01-17T11:35:40.615Z,93485.18
2023-01-17T11:38:18.137Z,93482.65
2023-01-17T11:40:49.026Z,93491.83
2023-01-17T11:43:22.216Z,93498.98
2023-01-17T11:46:16.398Z,93502.95
2023-01-17T11:48:59.786Z,93501.59
2023-01-17T11:51:41.506Z,93499.77
2023-01-17T11:54:33.550Z,93499.27
2023-01-17T11:57:02.243Z,93491.25
2023-01-17T11:59:34.746Z,93488.52
2023-01-17T12:02:34.464Z,93485.85
2023-01-17T12:05:18.694Z,93488.84
2023-01-17T12:08:18.613Z,93486.68
2023-01-17T12:11:17.173Z,93482.45
2023-01-17T12:14:03.233Z,93478.02
2023-01-17T12:17:09.186Z,93486.23
2023-01-17T12:19:54.581Z,93478.81
2023-01-17T12:22:42.472Z,93476.09
2023-01-17T12:25:55.331Z,93479.63
2023-01-17T12:28:44.805Z,93489.59
2023-01-17T12:31:16.049Z,93493.20
2023-01-17T12:34:11.250Z,93496.34
2023-01-17T12:36:52.940Z,93500.84
2023-01-17T12:39:27.114Z,93495.09
2023-01-17T12:41:58.526Z,93491.27
2023-01-17T12:44:50.171Z,93488.60
2023-01-17T12:47:20.956Z,93491.85
2023-01-17T12:50:04.304Z,93489.23
2023-01-17T12:52:51.279Z,93502.84
2023-01-17T12:55:42.179Z,93507.33
2023-01-17T12:58:20.124Z,93509.34
2023-01-17T13:00:56.823Z,93517.87
2023-01-17T13:03:29.656Z,93512.88
2023-01-17T13:05:58.214Z,93522.34
2023-01-17T13:08:48.189Z,93527.23
2023-01-17T13:11:28.716Z,93533.70
2023-01-17T13:14:00.128Z,93535.23
2023-01-17T13:16:42.043Z,93532.25
2023-01-17T13:19:29.883Z,93531.38
2023-01-17T13:22:00.189Z,93526.17
2023-01-17T13:24:35.280Z,93527.89
2023-01-17T13:27:22.903Z,93528.43
2023-01-17T13:30:16.268Z,93529.67
2023-01-17T13:33:16.965Z,93520.06
2023-01-17T13:36:18.568Z,93516.87
2023-01-17T13:39:05.367Z,93515.58
2023-01-17T13:41:45.760Z,93519.28
2023-01-17T13:44:24.785Z,93517.04
2023-01-17T13:47:18.432Z,93513.20
2023-01-17T13:49:49.595Z,93510.95
2023-01-17T13:52:20.940Z,93512.07
2023-01-17T13:54:53.225Z,93514.61
2023-01-17T13:57:30.484Z,93511.08
2023-01-17T14:00:22.478Z,93514.88
2023-01-17T14:02:52.923Z,93521.96
2023-01-17T14:05:42.365Z,93522.91
2023-01-17T14:08:17.500Z,93535.95
2023-01-17T14:10:50.296Z,93542.71
2023-01-17T14:13:44.649Z,93542.02
2023-01-17T14:16:22.219Z,93540.39
2023-01-17T14:18:50.597Z,93550.11
2023-01-17T14:21:29.133Z,93545.33
2023-01-17T14:24:06.733Z,93541.55
2023-01-17T14:26:42.606Z,93547.17
2023-01-17T14:29:46.019Z,93537.93
2023-01-17T14:32:27.436Z,93529.63
2023-01-17T14:34:57.388Z,93538.05
2023-01-17T14:37:44.923Z,93542.54
2023-01-17T14:40:26.120Z,93544.38
2023-01-17T14:43:20.426Z,93538.08
2023-01-17T14:45:49.045Z,93546.49
2023-01-17T14:48:21.435Z,93554.23
2023-01-17T14:50:52.314Z,93554.04
2023-01-17T14:53:26.143Z,93560.11
2023-01-17T14:56:14.172Z,93562.13
2023-01-17T14:58:42.886Z,93563.36
2023-01-17T15:01:13.861Z,93555.79
2023-01-17T15:03:46.919Z,93558.95
2023-01-17T15:06:21.930Z,93560.55
2023-01-17T15:08:54.345Z,93559.87
2023-01-17T15:11:27.426Z,93553.01
2023-01-17T15:14:01.979Z,93545.98
2023-01-17T15:16:35.582Z,93547.54
2023-01-17T15:19:12.803Z,93551.23
2023-01-17T15:21:44.213Z,93552.60
2023-01-17T15:24:19.833Z,93554.40
2023-01-17T15:26:48.837Z,93562.44
2023-01-17T15:29:41.833Z,93560.69
2023-01-17T15:32:28.074Z,93555.84
2023-01-17T15:34:57.105Z,93543.77
2023-01-17T15:37:42.991Z,93540.88
2023-01-17T15:40:23.170Z,93546.98
2023-01-17T15:43:19.528Z,93554.81
2023-01-17T15:45:57.275Z,93533.39
2023-01-17T15:48:44.264Z,93524.09
2023-01-17T15:51:13.187Z,93544.73
2023-01-17T15:53:42.977Z,93557.05
2023-01-17T15:56:33.088Z,93562.04
2023-01-17T15:59:38.567Z,93559.28
2023-01-17T16:02:25.890Z,93547.81
2023-01-17T16:04:54.803Z,93564.73
2023-01-17T16:07:35.553Z,93571.34
2023-01-17T16:10:15.653Z,93562.52
2023-01-17T16:12:43.876Z,93550.92
2023-01-17T16:15:13.636Z,93541.96
2023-01-17T16:17:50.784Z,93545.73
2023-01-17T16:20:30.822Z,93535.13
2023-01-17T16:23:00.384Z,93530.69
2023-01-17T16:25:32.515Z,93534.34
2023-01-17T16:28:01.262Z,93534.70
2023-01-17T16:30:31.599Z,93526.17
2023-01-17T16:32:59.983Z,93521.61
2023-01-17T16:35:32.069Z,93518.86
2023-01-17T16:38:20.653Z,93514.48
2023-01-17T16:40:48.912Z,93521.35
2023-01-17T16:43:19.049Z,93521.44
2023-01-17T16:45:50.388Z,93517.70
2023-01-17T16:48:22.850Z,93515.66
2023-01-17T16:50:53.077Z,93507.67
2023-01-17T16:53:24.921Z,93499.48
2023-01-17T16:55:57.070Z,93498.92
2023-01-17T16:58:25.724Z,93494.29
2023-01-17T17:00:55.801Z,93489.89
2023-01-17T17:03:24.023Z,93485.25
2023-01-17T17:05:57.310Z,93485.59
2023-01-17T17:08:26.358Z,93485.44
2023-01-17T17:10:54.664Z,93483.68
2023-01-17T17:13:22.967Z,93482.55
2023-01-17T17:15:51.301Z,93485.21
2023-01-17T17:18:22.139Z,93484.54
2023-01-17T17:20:50.447Z,93486.51
2023-01-17T17:23:18.860Z,93484.77
2023-01-17T17:25:55.478Z,93490.66
2023-01-17T17:28:23.774Z,93486.43
2023-01-17T17:31:01.599Z,93480.02
2023-01-17T17:33:29.747Z,93472.04
2023-01-17T17:36:03.019Z,93468.69
2023-01-17T17:38:35.055Z,93461.23
2023-01-17T17:41:09.808Z,93459.21
2023-01-17T17:43:40.524Z,93451.46
2023-01-17T17:46:08.967Z,93447.28
2023-01-17T17:48:37.542Z,93445.45
2023-01-17T17:51:06.520Z,93439.65
2023-01-17T17:53:34.748Z,93434.08
2023-01-17T17:56:05.413Z,93422.73
2023-01-17T17:58:35.465Z,93414.65
2023-01-17T18:01:06.002Z,93410.30
2023-01-17T18:03:34.238Z,93400.03
2023-01-17T18:06:08.240Z,93396.17
2023-01-17T18:08:37.680Z,93390.61
2023-01-17T18:11:15.178Z,93392.64
2023-01-17T18:13:43.467Z,93392.34
2023-01-17T18:16:15.131Z,93385.45
2023-01-17T18:18:49.645Z,93379.15
2023-01-17T18:21:23.767Z,93368.59
2023-01-17T18:23:54.732Z,93360.09
2023-01-17T18:26:25.646Z,93357.09
2023-01-17T18:28:55.851Z,93347.96
2023-01-17T18:31:25.691Z,93340.92
2023-01-17T18:33:59.642Z,93337.04
2023-01-17T18:36:30.636Z,93340.10
2023-01-17T18:39:00.776Z,93341.44
2023-01-17T18:41:31.291Z,93338.87
2023-01-17T18:43:59.421Z,93331.63
2023-01-17T18:46:27.673Z,93323.77
2023-01-17T18:48:57.173Z,93318.10
2023-01-17T18:51:26.567Z,93314.68
2023-01-17T18:53:54.905Z,93305.98
2023-01-17T18:56:23.631Z,93295.05
2023-01-17T18:58:51.799Z,93286.08
2023-01-17T19:01:22.951Z,93285.25
2023-01-17T19:03:53.765Z,93277.50
2023-01-17T19:06:31.954Z,93273.90
2023-01-17T19:09:00.447Z,93269.13
2023-01-17T19:11:28.992Z,93263.03
2023-01-17T19:13:57.199Z,93255.95
2023-01-17T19:16:32.101Z,93256.18
2023-01-17T19:19:09.225Z,93256.11
2023-01-17T19:21:37.463Z,93253.80
2023-01-17T19:24:06.855Z,93241.36
2023-01-17T19:26:35.083Z,93237.06
2023-01-17T19:29:07.143Z,93231.63
2023-01-17T19:31:42.775Z,93228.14
2023-01-17T19:34:14.429Z,93224.05
2023-01-17T19:36:42.884Z,93219.42
2023-01-17T19:39:11.486Z,93208.08
2023-01-17T19:41:45.211Z,93201.61
2023-01-17T19:44:15.116Z,93193.04
2023-01-17T19:46:45.457Z,93187.34
2023-01-17T19:49:13.692Z,93180.23
2023-01-17T19:51:41.835Z,93180.05
2023-01-17T19:54:10.031Z,93174.71
2023-01-17T19:56:38.127Z,93180.04
2023-01-17T19:59:07.253Z,93174.76
2023-01-17T20:01:35.590Z,93175.08
2023-01-17T20:04:04.031Z,93173.40
2023-01-17T20:06:35.381Z,93171.09
2023-01-17T20:09:05.163Z,93175.95
2023-01-17T20:11:35.070Z,93169.35
2023-01-17T20:14:05.696Z,93173.96
2023-01-17T20:16:37.553Z,93171.11
2023-01-17T20:19:06.331Z,93174.89
2023-01-17T20:21:34.855Z,93168.65
2023-01-17T20:24:06.090Z,93169.10
2023-01-17T20:26:35.616Z,93170.26
2023-01-17T20:29:10.897Z,93170.76
2023-01-17T20:31:41.586Z,93167.56
2023-01-17T20:34:12.240Z,93163.27
2023-01-17T20:36:42.249Z,93170.10
2023-01-17T20:39:16.020Z,93158.93
2023-01-17T20:41:46.379Z,93156.67
2023-01-17T20:44:15.691Z,93157.49
2023-01-17T20:46:43.985Z,93164.60
2023-01-17T20:49:15.761Z,93156.70
2023-01-17T20:51:45.251Z,93158.19
2023-01-17T20:54:16.527Z,93155.89
2023-01-17T20:56:47.420Z,93158.02
2023-01-17T20:59:18.948Z,93149.80
2023-01-17T21:01:47.551Z,93146.60
2023-01-17T21:04:16.796Z,93147.02
2023-01-17T21:06:44.941Z,93150.96
2023-01-17T21:09:15.257Z,93157.05
2023-01-17T21:11:44.673Z,93161.72
2023-01-17T21:14:13.363Z,93163.66
2023-01-17T21:16:44.185Z,93166.55
2023-01-17T21:19:15.090Z,93157.42
2023-01-17T21:21:43.666Z,93153.21
2023-01-17T21:24:16.457Z,93152.64
2023-01-17T21:26:46.375Z,93154.36
2023-01-17T21:29:16.364Z,93150.08
2023-01-17T21:31:45.344Z,93144.16
2023-01-17T21:34:13.885Z,93137.77
2023-01-17T21:36:42.699Z,93122.84
2023-01-17T21:39:16.413Z,93118.39
2023-01-17T21:41:47.970Z,93117.94
2023-01-17T21:44:21.896Z,93114.21
2023-01-17T21:46:56.364Z,93105.30
2023-01-17T21:49:24.967Z,93104.65
2023-01-17T21:51:53.386Z,93100.71
2023-01-17T21:54:44.964Z,93096.94
2023-01-17T21:57:34.206Z,93087.70
2023-01-17T22:00:06.856Z,93077.19
2023-01-17T22:02:46.729Z,93087.60
2023-01-17T22:05:16.932Z,93082.02
2023-01-17T22:08:04.236Z,93077.34
2023-01-17T22:10:33.001Z,93069.20
2023-01-17T22:13:01.189Z,93076.52
2023-01-17T22:15:29.504Z,93075.32
2023-01-17T22:17:58.244Z,93073.67
2023-01-17T22:20:26.851Z,93066.75
2023-01-17T22:22:55.253Z,93071.30
2023-01-17T22:25:23.681Z,93064.55
2023-01-17T22:27:51.954Z,93066.25
2023-01-17T22:30:20.231Z,93068.02
2023-01-17T22:32:48.410Z,93064.08
2023-01-17T22:35:16.749Z,93066.55
2023-01-17T22:37:44.950Z,93074.48
2023-01-17T22:40:13.426Z,93090.33
2023-01-17T22:42:41.467Z,93075.39
2023-01-17T22:45:10.607Z,93074.73
2023-01-17T22:47:39.164Z,93071.97
2023-01-17T22:50:09.141Z,93072.95
2023-01-17T22:52:37.322Z,93067.55
2023-01-17T22:55:06.047Z,93064.48
2023-01-17T22:57:34.654Z,93064.63
2023-01-17T23:00:04.349Z,93062.00
2023-01-17T23:02:32.462Z,93065.04
2023-01-17T23:05:01.824Z,93064.70
2023-01-17T23:07:31.041Z,93063.66
2023-01-17T23:09:59.269Z,93063.95
2023-01-17T23:12:27.609Z,93068.38
2023-01-17T23:15:14.364Z,93072.95
2023-01-17T23:18:01.359Z,93072.02
2023-01-17T23:20:29.527Z,93089.27
2023-01-17T23:22:57.962Z,93084.94
2023-01-17T23:25:26.503Z,93078.27
2023-01-17T23:28:14.632Z,93084.48
2023-01-17T23:30:43.089Z,93084.29
2023-01-17T23:33:13.397Z,93081.45
2023-01-17T23:35:44.886Z,93086.78
2023-01-17T23:38:29.429Z,93085.80
2023-01-17T23:41:25.325Z,93090.89
2023-01-17T23:43:55.459Z,93090.16
2023-01-17T23:46:25.570Z,93095.23
2023-01-17T23:48:55.363Z,93091.65
2023-01-17T23:51:23.597Z,93085.93
2023-01-17T23:53:57.513Z,93085.23
2023-01-17T23:56:25.815Z,93088.47
2023-01-17T23:58:53.976Z,93089.17
